Time;durP1;ratioP1;P1;durP2;ratioP2;P2;SDS_P1;SDS_P2;PMS_P1;PMS_P2;Temp;Humidity;BMP_temperature;BMP_pressure;BME280_temperature;BME280_humidity;BME280_pressure;Samples;Min_cycle;Max_cycle;Signal;HPM_P1;HPM_P2
2022/02/15 00:00:10;;;;;;;37.22;27.35;;;;;;;;;;5045466;28;20747;-81
2022/02/15 00:02:36;;;;;;;37.28;27.33;;;;;;;;;;5045115;28;20396;-81
2022/02/15 00:05:03;;;;;;;40.00;27.27;;;;;;;;;;5044940;28;20424;-81
2022/02/15 00:07:30;;;;;;;39.03;27.80;;;;;;;;;;5045379;28;20874;-81
2022/02/15 00:09:57;;;;;;;36.80;26.45;;;;;;;;;;5045079;28;20748;-81
2022/02/15 00:12:25;;;;;;;37.08;26.52;;;;;;;;;;5045066;28;20906;-81
2022/02/15 00:14:52;;;;;;;37.35;26.88;;;;;;;;;;5044565;28;20922;-81
2022/02/15 00:17:19;;;;;;;35.90;25.75;;;;;;;;;;5045162;28;20477;-81
2022/02/15 00:19:46;;;;;;;35.03;26.33;;;;;;;;;;5045092;28;20457;-81
2022/02/15 00:22:13;;;;;;;36.80;26.33;;;;;;;;;;5044923;28;20764;-81
2022/02/15 00:24:40;;;;;;;36.70;26.48;;;;;;;;;;5045282;28;20506;-81
2022/02/15 00:27:07;;;;;;;36.45;26.83;;;;;;;;;;5045064;28;21170;-81
2022/02/15 00:29:35;;;;;;;35.58;26.05;;;;;;;;;;5043529;28;20887;-81
2022/02/15 00:32:02;;;;;;;38.63;26.90;;;;;;;;;;5044768;28;20733;-81
2022/02/15 00:34:29;;;;;;;34.90;25.92;;;;;;;;;;5044382;28;20404;-82
2022/02/15 00:36:55;;;;;;;40.10;27.00;;;;;;;;;;5044770;28;20403;-81
2022/02/15 00:39:22;;;;;;;39.67;26.23;;;;;;;;;;5044740;28;20404;-82
2022/02/15 00:41:49;;;;;;;37.65;26.85;;;;;;;;;;5044527;28;20886;-81
2022/02/15 00:44:16;;;;;;;41.25;26.45;;;;;;;;;;5043890;28;20400;-81
2022/02/15 00:46:45;;;;;;;36.58;26.67;;;;;;;;;;5041604;28;20735;-82
2022/02/15 00:49:12;;;;;;;39.28;27.48;;;;;;;;;;5040881;28;20931;-81
2022/02/15 00:51:39;;;;;;;39.33;27.23;;;;;;;;;;5044700;28;20802;-82
2022/02/15 00:54:05;;;;;;;38.03;27.35;;;;;;;;;;5043262;28;20400;-81
2022/02/15 00:56:32;;;;;;;38.47;27.02;;;;;;;;;;5043447;28;20399;-81
2022/02/15 00:58:59;;;;;;;37.85;26.95;;;;;;;;;;5044155;28;20403;-81
2022/02/15 01:01:26;;;;;;;39.77;27.70;;;;;;;;;;5043636;28;20910;-81
2022/02/15 01:03:54;;;;;;;37.88;28.38;;;;;;;;;;5044014;28;20404;-81
2022/02/15 01:06:21;;;;;;;37.42;27.17;;;;;;;;;;5043758;28;20485;-81
2022/02/15 01:08:48;;;;;;;39.17;27.40;;;;;;;;;;5044220;28;20664;-81
2022/02/15 01:11:15;;;;;;;36.97;26.55;;;;;;;;;;5043558;28;20399;-81
2022/02/15 01:13:42;;;;;;;37.22;26.73;;;;;;;;;;5044134;28;20801;-81
2022/02/15 01:16:09;;;;;;;41.42;29.38;;;;;;;;;;5043707;28;20400;-81
2022/02/15 01:18:36;;;;;;;45.83;30.00;;;;;;;;;;5042849;28;20404;-81
2022/02/15 01:21:04;;;;;;;41.38;27.95;;;;;;;;;;5043456;28;20407;-81
2022/02/15 01:23:31;;;;;;;39.67;27.45;;;;;;;;;;5041343;28;20473;-81
2022/02/15 01:25:58;;;;;;;38.63;27.53;;;;;;;;;;5043311;28;20948;-81
2022/02/15 01:28:25;;;;;;;37.30;26.80;;;;;;;;;;5043467;28;20403;-81
2022/02/15 01:30:51;;;;;;;33.70;25.08;;;;;;;;;;5043738;28;20403;-81
2022/02/15 01:33:18;;;;;;;34.67;24.90;;;;;;;;;;5042974;28;20403;-81
2022/02/15 01:35:45;;;;;;;34.90;25.60;;;;;;;;;;5044046;28;20395;-81
2022/02/15 01:38:13;;;;;;;33.40;24.65;;;;;;;;;;5043655;28;20400;-81
2022/02/15 01:40:40;;;;;;;36.53;25.27;;;;;;;;;;5043048;28;20466;-81
2022/02/15 01:43:07;;;;;;;36.55;24.98;;;;;;;;;;5043661;28;20426;-81
2022/02/15 01:45:34;;;;;;;35.10;25.33;;;;;;;;;;5042129;28;20419;-81
2022/02/15 01:48:01;;;;;;;32.83;24.48;;;;;;;;;;5043391;28;20396;-81
2022/02/15 01:50:28;;;;;;;32.88;24.15;;;;;;;;;;5043219;28;20928;-81
2022/02/15 01:52:55;;;;;;;34.92;24.23;;;;;;;;;;5043223;28;20404;-81
2022/02/15 01:55:23;;;;;;;33.00;24.33;;;;;;;;;;5043151;28;20403;-81
2022/02/15 01:57:50;;;;;;;32.55;24.10;;;;;;;;;;5043257;28;20453;-81
2022/02/15 02:00:19;;;;;;;37.10;25.00;;;;;;;;;;5042918;28;20399;-80
2022/02/15 02:02:47;;;;;;;34.50;24.15;;;;;;;;;;5040891;28;20404;-81
2022/02/15 02:07:59;;;;;;;34.80;25.73;;;;;;;;;;5041307;28;20470;-81
2022/02/15 02:10:28;;;;;;;36.30;25.67;;;;;;;;;;5042899;28;20477;-81
2022/02/15 02:12:54;;;;;;;39.15;27.95;;;;;;;;;;5043248;28;21182;-81
2022/02/15 02:15:24;;;;;;;38.65;26.77;;;;;;;;;;5042733;28;20477;-81
2022/02/15 02:17:52;;;;;;;42.10;27.83;;;;;;;;;;5042962;28;20491;-80
2022/02/15 02:20:20;;;;;;;37.25;26.98;;;;;;;;;;5043306;28;20792;-81
2022/02/15 02:22:49;;;;;;;39.57;28.10;;;;;;;;;;5040880;28;20575;-81
2022/02/15 02:25:18;;;;;;;36.10;26.85;;;;;;;;;;5042532;28;20423;-81
2022/02/15 02:27:45;;;;;;;41.20;28.00;;;;;;;;;;5039260;28;20447;-79
2022/02/15 02:30:13;;;;;;;38.55;27.83;;;;;;;;;;5042630;28;20453;-81
2022/02/15 02:32:40;;;;;;;39.63;28.38;;;;;;;;;;5041912;28;20441;-80
2022/02/15 02:35:08;;;;;;;40.67;27.92;;;;;;;;;;5041552;28;20407;-80
2022/02/15 02:37:35;;;;;;;39.10;28.25;;;;;;;;;;5041411;28;20403;-80
2022/02/15 02:40:06;;;;;;;39.33;27.97;;;;;;;;;;5042725;28;21231;-79
2022/02/15 02:42:34;;;;;;;42.47;28.88;;;;;;;;;;5042790;28;20744;-80
2022/02/15 02:45:04;;;;;;;41.22;29.13;;;;;;;;;;5041119;28;20403;-80
2022/02/15 02:47:31;;;;;;;39.38;28.75;;;;;;;;;;5042881;28;20871;-81
2022/02/15 02:49:58;;;;;;;40.40;29.02;;;;;;;;;;5042346;28;20755;-79
2022/02/15 02:52:25;;;;;;;40.28;29.23;;;;;;;;;;5042617;28;20453;-80
2022/02/15 02:54:52;;;;;;;40.08;28.70;;;;;;;;;;5042820;28;20457;-79
2022/02/15 02:57:20;;;;;;;39.35;28.98;;;;;;;;;;5042718;28;20465;-79
2022/02/15 02:59:47;;;;;;;40.50;29.30;;;;;;;;;;5040478;28;20471;-80
2022/02/15 03:02:15;;;;;;;38.88;28.77;;;;;;;;;;5042391;28;20873;-80
2022/02/15 03:04:42;;;;;;;43.80;29.92;;;;;;;;;;5043028;28;20399;-80
2022/02/15 03:07:09;;;;;;;42.78;29.55;;;;;;;;;;5043802;28;20481;-80
2022/02/15 03:09:36;;;;;;;40.33;28.98;;;;;;;;;;5038973;28;20403;-80
2022/02/15 03:12:05;;;;;;;41.63;29.58;;;;;;;;;;5043339;28;20395;-80
2022/02/15 03:14:33;;;;;;;40.03;28.88;;;;;;;;;;5042464;28;20926;-81
2022/02/15 03:17:00;;;;;;;39.53;28.80;;;;;;;;;;5043822;28;20822;-80
2022/02/15 03:19:27;;;;;;;42.10;29.55;;;;;;;;;;5045622;28;20455;-80
2022/02/15 03:21:54;;;;;;;39.80;29.35;;;;;;;;;;5047644;28;20427;-79
2022/02/15 03:24:20;;;;;;;44.25;31.05;;;;;;;;;;5047138;28;20400;-79
2022/02/15 03:26:47;;;;;;;42.25;30.67;;;;;;;;;;5047396;28;20423;-80
2022/02/15 03:29:14;;;;;;;39.58;28.88;;;;;;;;;;5047165;28;20400;-80
2022/02/15 03:31:43;;;;;;;42.78;30.55;;;;;;;;;;5047064;28;20408;-80
2022/02/15 03:34:10;;;;;;;44.17;30.98;;;;;;;;;;5046753;28;20399;-80
2022/02/15 03:36:37;;;;;;;44.90;30.50;;;;;;;;;;5047075;28;20411;-80
2022/02/15 03:39:05;;;;;;;41.70;30.05;;;;;;;;;;5046507;28;20787;-80
2022/02/15 03:44:17;;;;;;;41.38;28.17;;;;;;;;;;5044392;28;20394;-80
2022/02/15 03:46:45;;;;;;;42.25;29.25;;;;;;;;;;5046591;28;20830;-81
2022/02/15 03:49:12;;;;;;;43.97;29.42;;;;;;;;;;5046959;28;20402;-80
2022/02/15 03:51:39;;;;;;;43.22;28.95;;;;;;;;;;5046610;28;20461;-79
2022/02/15 03:54:06;;;;;;;41.88;28.02;;;;;;;;;;5042709;28;20400;-81
2022/02/15 03:56:33;;;;;;;41.10;27.77;;;;;;;;;;5045821;28;20422;-81
2022/02/15 03:59:00;;;;;;;39.95;27.58;;;;;;;;;;5046771;28;20416;-81
2022/02/15 04:01:28;;;;;;;39.08;27.67;;;;;;;;;;5046258;28;20399;-81
2022/02/15 04:03:56;;;;;;;38.92;26.98;;;;;;;;;;5046418;28;20465;-80
2022/02/15 04:06:23;;;;;;;38.20;25.95;;;;;;;;;;5046450;28;20419;-81
2022/02/15 04:08:50;;;;;;;32.37;24.10;;;;;;;;;;5042018;28;20435;-81
2022/02/15 04:11:17;;;;;;;33.00;24.05;;;;;;;;;;5043302;28;20405;-81
2022/02/15 04:13:44;;;;;;;34.55;24.25;;;;;;;;;;5046285;28;20411;-81
2022/02/15 04:16:11;;;;;;;34.40;22.98;;;;;;;;;;5046723;28;20407;-80
2022/02/15 04:18:43;;;;;;;32.53;22.13;;;;;;;;;;5046757;28;20801;-81
2022/02/15 04:21:13;;;;;;;30.35;21.23;;;;;;;;;;5043343;28;20391;-81
2022/02/15 04:23:40;;;;;;;31.52;21.85;;;;;;;;;;5046088;28;20486;-81
2022/02/15 04:26:07;;;;;;;30.70;21.80;;;;;;;;;;5045512;28;20419;-81
2022/02/15 04:28:34;;;;;;;32.53;21.55;;;;;;;;;;5045370;28;21016;-81
2022/02/15 04:31:00;;;;;;;30.02;20.92;;;;;;;;;;5045213;28;20403;-81
2022/02/15 04:33:27;;;;;;;29.80;19.27;;;;;;;;;;5045795;28;20480;-81
2022/02/15 04:35:54;;;;;;;26.15;18.73;;;;;;;;;;5045925;28;20521;-80
2022/02/15 04:38:22;;;;;;;29.73;20.17;;;;;;;;;;5045621;28;21343;-81
2022/02/15 04:40:49;;;;;;;28.50;20.70;;;;;;;;;;5045365;28;20411;-81
2022/02/15 04:43:16;;;;;;;27.80;19.50;;;;;;;;;;5045449;28;20419;-81
2022/02/15 04:45:43;;;;;;;29.38;20.95;;;;;;;;;;5045142;28;20728;-81
2022/02/15 04:48:09;;;;;;;27.92;20.55;;;;;;;;;;5045166;28;20434;-81
2022/02/15 04:50:37;;;;;;;27.63;19.25;;;;;;;;;;5040721;28;20486;-81
2022/02/15 04:53:03;;;;;;;27.45;18.95;;;;;;;;;;5044919;28;20400;-81
2022/02/15 04:55:32;;;;;;;27.33;19.35;;;;;;;;;;5044862;28;20411;-81
2022/02/15 04:57:58;;;;;;;26.92;18.58;;;;;;;;;;5041831;28;20407;-81
2022/02/15 05:00:25;;;;;;;27.75;18.92;;;;;;;;;;5044487;28;20399;-81
2022/02/15 05:02:52;;;;;;;26.42;17.88;;;;;;;;;;5044850;28;20399;-80
2022/02/15 05:05:19;;;;;;;26.77;17.88;;;;;;;;;;5038978;28;20411;-80
2022/02/15 05:07:46;;;;;;;23.15;16.27;;;;;;;;;;5043252;28;20420;-81
2022/02/15 05:10:12;;;;;;;24.60;16.88;;;;;;;;;;5043839;28;20396;-81
2022/02/15 05:12:41;;;;;;;24.98;17.30;;;;;;;;;;5044338;28;20469;-81
2022/02/15 05:15:10;;;;;;;22.75;15.30;;;;;;;;;;5041333;28;20412;-81
2022/02/15 05:17:37;;;;;;;22.80;16.13;;;;;;;;;;5040716;28;20494;-81
2022/02/15 05:20:05;;;;;;;22.73;15.73;;;;;;;;;;5044404;28;20512;-80
2022/02/15 05:22:32;;;;;;;20.90;14.75;;;;;;;;;;5044086;28;20953;-81
2022/02/15 05:24:59;;;;;;;19.73;14.73;;;;;;;;;;5044210;28;20399;-81
2022/02/15 05:27:26;;;;;;;18.98;14.35;;;;;;;;;;5044132;28;20500;-81
2022/02/15 05:29:54;;;;;;;20.67;13.77;;;;;;;;;;5044484;28;20486;-81
2022/02/15 05:32:20;;;;;;;19.20;14.02;;;;;;;;;;5044251;28;20403;-81
2022/02/15 05:34:47;;;;;;;17.80;13.25;;;;;;;;;;5044096;28;20473;-81
2022/02/15 05:37:15;;;;;;;19.55;13.30;;;;;;;;;;5044125;28;20989;-81
2022/02/15 05:39:41;;;;;;;21.48;13.25;;;;;;;;;;5044267;28;20408;-80
2022/02/15 05:42:08;;;;;;;18.05;12.45;;;;;;;;;;5044151;28;20395;-81
2022/02/15 05:44:35;;;;;;;16.88;12.25;;;;;;;;;;5043659;28;20772;-81
2022/02/15 05:47:04;;;;;;;19.10;12.40;;;;;;;;;;5043888;28;20477;-81
2022/02/15 05:49:30;;;;;;;17.45;11.68;;;;;;;;;;5043664;28;20410;-80
2022/02/15 05:51:57;;;;;;;19.60;12.40;;;;;;;;;;5044047;28;20863;-81
2022/02/15 05:54:24;;;;;;;19.00;12.88;;;;;;;;;;5043575;28;20733;-81
2022/02/15 05:56:51;;;;;;;17.50;12.43;;;;;;;;;;5044351;28;20404;-81
2022/02/15 05:59:17;;;;;;;17.92;12.95;;;;;;;;;;5043541;28;20454;-81
2022/02/15 06:01:44;;;;;;;18.70;12.48;;;;;;;;;;5043733;28;20400;-81
2022/02/15 06:04:12;;;;;;;16.50;12.20;;;;;;;;;;5043169;28;20494;-81
2022/02/15 06:06:40;;;;;;;15.95;11.00;;;;;;;;;;5042305;28;20428;-80
2022/02/15 06:09:07;;;;;;;16.90;11.50;;;;;;;;;;5043629;28;20403;-81
2022/02/15 06:11:34;;;;;;;16.63;11.43;;;;;;;;;;5043131;28;20403;-81
2022/02/15 06:14:01;;;;;;;16.38;11.48;;;;;;;;;;5042847;28;20414;-81
2022/02/15 06:16:28;;;;;;;16.83;10.93;;;;;;;;;;5042253;28;20426;-81
2022/02/15 06:18:56;;;;;;;16.50;11.23;;;;;;;;;;5043176;28;20407;-81
2022/02/15 06:21:25;;;;;;;15.18;10.65;;;;;;;;;;5039583;28;20989;-81
2022/02/15 06:23:52;;;;;;;13.45;9.98;;;;;;;;;;5041476;28;20395;-81
2022/02/15 06:26:19;;;;;;;15.05;10.55;;;;;;;;;;5041372;28;20400;-81
2022/02/15 06:28:46;;;;;;;15.38;10.60;;;;;;;;;;5037504;28;20733;-79
2022/02/15 06:31:14;;;;;;;15.17;10.27;;;;;;;;;;5041527;28;20412;-80
2022/02/15 06:33:40;;;;;;;13.60;9.85;;;;;;;;;;5041089;28;20453;-79
2022/02/15 06:36:09;;;;;;;13.88;10.18;;;;;;;;;;5042618;28;20463;-78
2022/02/15 06:38:38;;;;;;;13.95;9.93;;;;;;;;;;5041326;28;20791;-79
2022/02/15 06:41:05;;;;;;;14.45;9.80;;;;;;;;;;5040867;28;20403;-80
2022/02/15 06:43:32;;;;;;;14.97;9.60;;;;;;;;;;5041987;28;20461;-80
2022/02/15 06:45:58;;;;;;;14.65;9.45;;;;;;;;;;5040891;28;20461;-80
2022/02/15 06:48:25;;;;;;;14.27;10.13;;;;;;;;;;5041121;28;20497;-80
2022/02/15 06:50:52;;;;;;;15.57;9.83;;;;;;;;;;5041245;28;20408;-80
2022/02/15 06:53:19;;;;;;;13.68;9.38;;;;;;;;;;5042879;28;20407;-81
2022/02/15 06:55:47;;;;;;;12.98;9.40;;;;;;;;;;5046180;28;20407;-90
2022/02/15 06:58:14;;;;;;;13.80;9.38;;;;;;;;;;5046904;28;20469;-80
2022/02/15 07:00:41;;;;;;;12.55;8.77;;;;;;;;;;5046422;28;20396;-80
2022/02/15 07:03:08;;;;;;;12.82;9.02;;;;;;;;;;5046283;28;20395;-79
2022/02/15 07:05:34;;;;;;;13.05;8.68;;;;;;;;;;5046728;28;20403;-79
2022/02/15 07:08:02;;;;;;;15.82;9.30;;;;;;;;;;5046123;28;20450;-88
2022/02/15 07:10:28;;;;;;;12.80;8.73;;;;;;;;;;5045773;28;20436;-79
2022/02/15 07:12:57;;;;;;;14.75;9.40;;;;;;;;;;5044050;28;20415;-78
2022/02/15 07:15:24;;;;;;;15.10;9.18;;;;;;;;;;5045015;28;20411;-78
2022/02/15 07:17:51;;;;;;;15.32;9.18;;;;;;;;;;5042960;28;20502;-78
2022/02/15 07:20:17;;;;;;;15.05;9.98;;;;;;;;;;5047243;28;20400;-79
2022/02/15 07:22:44;;;;;;;16.63;10.13;;;;;;;;;;5047381;28;20407;-78
2022/02/15 07:25:11;;;;;;;16.20;10.37;;;;;;;;;;5047639;28;20438;-79
2022/02/15 07:27:38;;;;;;;18.95;12.18;;;;;;;;;;5047067;28;20416;-79
2022/02/15 07:30:08;;;;;;;20.27;12.50;;;;;;;;;;5045924;28;20964;-78
2022/02/15 07:32:35;;;;;;;19.98;12.68;;;;;;;;;;5046055;28;20437;-78
2022/02/15 07:35:01;;;;;;;17.33;12.32;;;;;;;;;;5044342;28;20470;-78
2022/02/15 07:37:28;;;;;;;16.23;11.73;;;;;;;;;;5047448;28;20411;-78
2022/02/15 07:39:55;;;;;;;23.48;11.80;;;;;;;;;;5047107;28;20399;-78
2022/02/15 07:42:22;;;;;;;17.83;11.85;;;;;;;;;;5045697;28;20492;-78
2022/02/15 07:44:49;;;;;;;18.00;11.60;;;;;;;;;;5046156;28;20400;-79
2022/02/15 07:47:17;;;;;;;19.10;13.02;;;;;;;;;;5046891;28;20466;-79
2022/02/15 07:49:44;;;;;;;21.17;12.73;;;;;;;;;;5046311;28;20469;-78
2022/02/15 07:52:11;;;;;;;17.13;12.73;;;;;;;;;;5047122;28;20404;-78
2022/02/15 07:54:38;;;;;;;17.05;12.10;;;;;;;;;;5042857;28;20407;-78
2022/02/15 07:57:06;;;;;;;17.00;12.18;;;;;;;;;;5046881;28;20982;-77
2022/02/15 07:59:32;;;;;;;17.90;12.60;;;;;;;;;;5046650;28;20407;-78
2022/02/15 08:01:59;;;;;;;18.98;12.60;;;;;;;;;;5046752;28;20404;-80
2022/02/15 08:04:28;;;;;;;18.15;12.30;;;;;;;;;;5046260;28;20400;-78
2022/02/15 08:06:55;;;;;;;17.67;12.75;;;;;;;;;;5046698;28;20411;-77
2022/02/15 08:09:23;;;;;;;20.60;13.65;;;;;;;;;;5046309;28;20838;-80
2022/02/15 08:11:55;;;;;;;21.30;13.77;;;;;;;;;;5046045;28;20404;-77
2022/02/15 08:14:23;;;;;;;20.50;13.38;;;;;;;;;;5045937;28;20473;-77
2022/02/15 08:16:50;;;;;;;20.25;13.02;;;;;;;;;;5046514;28;20479;-78
2022/02/15 08:19:23;;;;;;;16.92;12.18;;;;;;;;;;5046184;28;20439;-78
2022/02/15 08:21:54;;;;;;;15.40;11.10;;;;;;;;;;5046242;28;20414;-77
2022/02/15 08:24:21;;;;;;;14.35;10.45;;;;;;;;;;5045649;28;20415;-77
2022/02/15 08:26:48;;;;;;;15.63;11.25;;;;;;;;;;5045901;28;20461;-78
2022/02/15 08:29:14;;;;;;;15.93;11.00;;;;;;;;;;5046511;28;20473;-79
2022/02/15 08:31:41;;;;;;;16.85;11.70;;;;;;;;;;5046459;28;20410;-77
2022/02/15 08:34:08;;;;;;;15.00;11.15;;;;;;;;;;5042092;28;20469;-77
2022/02/15 08:36:35;;;;;;;16.00;11.35;;;;;;;;;;5045524;28;20469;-77
2022/02/15 08:39:03;;;;;;;16.23;12.30;;;;;;;;;;5046069;28;20903;-78
2022/02/15 08:41:30;;;;;;;15.70;11.57;;;;;;;;;;5045543;28;21341;-77
2022/02/15 08:43:58;;;;;;;15.05;12.00;;;;;;;;;;5045972;28;20412;-77
2022/02/15 08:46:25;;;;;;;15.50;12.13;;;;;;;;;;5045445;28;20395;-78
2022/02/15 08:48:52;;;;;;;16.50;12.90;;;;;;;;;;5044494;28;20911;-78
2022/02/15 08:51:20;;;;;;;18.27;12.47;;;;;;;;;;5045340;28;20491;-78
2022/02/15 08:53:50;;;;;;;16.70;11.93;;;;;;;;;;5045202;28;20400;-77
2022/02/15 08:56:19;;;;;;;14.55;11.48;;;;;;;;;;5045493;28;20402;-78
2022/02/15 08:58:47;;;;;;;15.52;12.70;;;;;;;;;;5044525;28;20403;-78
2022/02/15 09:01:17;;;;;;;17.42;12.02;;;;;;;;;;5044837;28;20865;-77
2022/02/15 09:03:44;;;;;;;16.35;11.60;;;;;;;;;;5044646;28;20925;-77
2022/02/15 09:06:11;;;;;;;13.70;11.20;;;;;;;;;;5044869;28;20498;-80
2022/02/15 09:08:38;;;;;;;14.00;11.18;;;;;;;;;;5040887;28;20416;-77
2022/02/15 09:11:04;;;;;;;15.80;11.63;;;;;;;;;;5044874;28;20983;-77
2022/02/15 09:13:33;;;;;;;16.02;11.93;;;;;;;;;;5044404;28;20918;-80
2022/02/15 09:15:59;;;;;;;15.45;11.80;;;;;;;;;;5044182;28;20891;-78
2022/02/15 09:18:26;;;;;;;18.25;11.70;;;;;;;;;;5044523;28;20457;-77
2022/02/15 09:20:53;;;;;;;14.38;10.65;;;;;;;;;;5041050;28;20409;-78
2022/02/15 09:23:20;;;;;;;13.50;10.60;;;;;;;;;;5045086;28;20510;-77
2022/02/15 09:25:47;;;;;;;13.32;9.55;;;;;;;;;;5044837;28;20412;-78
2022/02/15 09:28:14;;;;;;;12.03;9.60;;;;;;;;;;5044976;28;20427;-78
2022/02/15 09:30:42;;;;;;;11.32;9.40;;;;;;;;;;5044367;28;20465;-77
2022/02/15 09:33:08;;;;;;;12.73;9.57;;;;;;;;;;5041148;28;20404;-78
2022/02/15 09:35:36;;;;;;;13.20;9.23;;;;;;;;;;5043629;28;20408;-77
2022/02/15 09:38:02;;;;;;;12.33;9.60;;;;;;;;;;5044764;28;20403;-80
2022/02/15 09:40:29;;;;;;;9.93;7.93;;;;;;;;;;5043380;28;20404;-78
2022/02/15 09:42:57;;;;;;;10.85;8.50;;;;;;;;;;5044128;28;20399;-78
2022/02/15 09:45:23;;;;;;;10.85;8.75;;;;;;;;;;5044018;28;20477;-77
2022/02/15 09:47:54;;;;;;;12.18;9.70;;;;;;;;;;5044136;28;20427;-76
2022/02/15 09:50:23;;;;;;;13.65;9.82;;;;;;;;;;5044263;28;20431;-77
2022/02/15 09:52:49;;;;;;;12.73;10.18;;;;;;;;;;5043065;28;20407;-78
2022/02/15 09:55:16;;;;;;;13.48;10.15;;;;;;;;;;5043821;28;20771;-78
2022/02/15 09:57:43;;;;;;;14.10;10.73;;;;;;;;;;5044309;28;20446;-78
2022/02/15 10:00:11;;;;;;;14.45;10.70;;;;;;;;;;5044752;28;20408;-77
2022/02/15 10:02:39;;;;;;;15.27;11.75;;;;;;;;;;5044657;28;20403;-79
2022/02/15 10:05:10;;;;;;;18.63;13.48;;;;;;;;;;5043865;28;20462;-80
2022/02/15 10:07:45;;;;;;;18.63;14.30;;;;;;;;;;5043681;28;20419;-79
2022/02/15 10:10:12;;;;;;;20.83;15.05;;;;;;;;;;5044549;28;20494;-79
2022/02/15 10:12:39;;;;;;;22.48;14.65;;;;;;;;;;5044362;28;20819;-79
2022/02/15 10:15:10;;;;;;;20.50;14.93;;;;;;;;;;5043740;28;20468;-79
2022/02/15 10:17:38;;;;;;;21.67;15.05;;;;;;;;;;5043785;28;20486;-78
2022/02/15 10:20:08;;;;;;;21.02;14.73;;;;;;;;;;5043584;28;20483;-79
2022/02/15 10:22:39;;;;;;;19.02;14.65;;;;;;;;;;5040418;28;20407;-79
2022/02/15 10:25:07;;;;;;;21.80;15.15;;;;;;;;;;5044555;28;20403;-79
2022/02/15 10:27:35;;;;;;;21.40;15.15;;;;;;;;;;5043952;28;20883;-79
2022/02/15 10:30:05;;;;;;;18.77;14.43;;;;;;;;;;5047903;28;20494;-79
2022/02/15 10:32:31;;;;;;;20.65;14.88;;;;;;;;;;5048434;28;20407;-80
2022/02/15 10:35:00;;;;;;;24.77;16.57;;;;;;;;;;5048306;28;20395;-80
2022/02/15 10:37:32;;;;;;;30.27;19.57;;;;;;;;;;5048454;28;20467;-79
2022/02/15 10:40:00;;;;;;;26.92;19.98;;;;;;;;;;5048411;28;20435;-81
2022/02/15 10:42:30;;;;;;;28.83;20.35;;;;;;;;;;5047859;28;20406;-78
2022/02/15 10:44:59;;;;;;;28.23;19.38;;;;;;;;;;5048206;28;20456;-76
2022/02/15 10:47:27;;;;;;;28.87;20.87;;;;;;;;;;5047886;28;20414;-80
2022/02/15 10:49:56;;;;;;;29.52;21.13;;;;;;;;;;5047634;28;20795;-77
2022/02/15 10:52:23;;;;;;;30.92;21.77;;;;;;;;;;5047871;28;20404;-80
2022/02/15 10:54:52;;;;;;;30.30;21.27;;;;;;;;;;5047522;28;20450;-77
2022/02/15 10:57:19;;;;;;;27.52;21.33;;;;;;;;;;5047675;28;20453;-78
2022/02/15 10:59:48;;;;;;;29.83;21.38;;;;;;;;;;5047718;28;20871;-80
2022/02/15 11:02:20;;;;;;;28.63;20.67;;;;;;;;;;5047830;28;20925;-80
2022/02/15 11:04:48;;;;;;;33.25;20.70;;;;;;;;;;5044858;28;20411;-79
2022/02/15 11:07:15;;;;;;;30.83;22.08;;;;;;;;;;5046948;28;20749;-78
2022/02/15 11:09:51;;;;;;;33.88;23.65;;;;;;;;;;5044225;28;20431;-78
2022/02/15 11:12:23;;;;;;;30.10;23.13;;;;;;;;;;5044782;28;20502;-78
2022/02/15 11:14:51;;;;;;;33.53;23.00;;;;;;;;;;5047363;28;20434;-77
2022/02/15 11:17:18;;;;;;;36.40;24.20;;;;;;;;;;5047204;28;20403;-78
2022/02/15 11:19:45;;;;;;;34.03;23.35;;;;;;;;;;5053392;22;20417;-84
2022/02/15 11:22:19;;;;;;;34.45;23.98;;;;;;;;;;5042806;28;20431;-84
2022/02/15 11:24:47;;;;;;;36.20;25.10;;;;;;;;;;5025234;28;20402;-84
2022/02/15 11:27:15;;;;;;;35.97;26.23;;;;;;;;;;5042959;28;20411;-83
2022/02/15 11:29:51;;;;;;;35.13;24.85;;;;;;;;;;5039307;28;20518;-83
2022/02/15 11:32:26;;;;;;;38.65;26.50;;;;;;;;;;5039786;28;20840;-83
2022/02/15 11:34:54;;;;;;;37.17;25.90;;;;;;;;;;5036867;28;20406;-82
2022/02/15 11:37:22;;;;;;;40.63;27.05;;;;;;;;;;5034714;28;20955;-83
2022/02/15 11:40:06;;;;;;;37.63;25.98;;;;;;;;;;5042508;28;20742;-83
2022/02/15 11:42:44;;;;;;;38.25;27.05;;;;;;;;;;5055371;28;20435;-84
2022/02/15 11:45:27;;;;;;;36.97;26.58;;;;;;;;;;5063493;28;20396;-83
2022/02/15 11:47:55;;;;;;;37.63;26.90;;;;;;;;;;5056225;28;20413;-83
2022/02/15 11:50:22;;;;;;;36.17;26.45;;;;;;;;;;5057120;28;20518;-84
2022/02/15 11:52:49;;;;;;;35.35;26.42;;;;;;;;;;5061480;28;20397;-83
2022/02/15 11:55:19;;;;;;;37.50;26.77;;;;;;;;;;5065674;28;20423;-84
2022/02/15 11:57:47;;;;;;;38.03;27.05;;;;;;;;;;5060988;28;20409;-83
2022/02/15 12:00:15;;;;;;;36.45;26.17;;;;;;;;;;5069071;28;20419;-82
2022/02/15 12:02:53;;;;;;;36.40;26.23;;;;;;;;;;5051199;28;20383;-82
2022/02/15 12:05:20;;;;;;;35.55;25.83;;;;;;;;;;5046752;28;20925;-83
2022/02/15 12:07:47;;;;;;;35.00;26.63;;;;;;;;;;5045963;28;20420;-82
2022/02/15 12:10:14;;;;;;;38.00;26.55;;;;;;;;;;5045784;28;20427;-82
2022/02/15 12:12:41;;;;;;;35.42;25.92;;;;;;;;;;5043599;28;20416;-83
2022/02/15 12:15:11;;;;;;;34.83;25.25;;;;;;;;;;5044898;28;20491;-82
2022/02/15 12:17:42;;;;;;;34.58;25.42;;;;;;;;;;5046441;28;20440;-85
2022/02/15 12:20:13;;;;;;;32.20;25.33;;;;;;;;;;5044131;28;20439;-85
2022/02/15 12:22:41;;;;;;;31.00;24.52;;;;;;;;;;5045758;28;20510;-83
2022/02/15 12:25:11;;;;;;;30.90;24.43;;;;;;;;;;5045910;28;20408;-82
2022/02/15 12:27:44;;;;;;;31.92;25.23;;;;;;;;;;5041059;28;20908;-83
2022/02/15 12:30:12;;;;;;;32.97;25.02;;;;;;;;;;5044891;28;20519;-82
2022/02/15 12:32:41;;;;;;;31.73;24.05;;;;;;;;;;5042965;28;20938;-82
2022/02/15 12:35:11;;;;;;;33.38;23.90;;;;;;;;;;5043520;28;20903;-84
2022/02/15 12:37:38;;;;;;;31.13;23.63;;;;;;;;;;5023499;28;20498;-81
2022/02/15 12:40:09;;;;;;;31.60;25.43;;;;;;;;;;5041377;28;20396;-81
2022/02/15 12:42:36;;;;;;;32.33;24.60;;;;;;;;;;5038270;28;20445;-82
2022/02/15 12:45:06;;;;;;;33.38;24.00;;;;;;;;;;5033394;28;20412;-82
2022/02/15 12:47:37;;;;;;;33.92;25.73;;;;;;;;;;5036863;28;20444;-83
2022/02/15 12:50:05;;;;;;;36.53;27.42;;;;;;;;;;5037852;28;20446;-82
2022/02/15 12:52:34;;;;;;;38.95;28.00;;;;;;;;;;5033721;28;20404;-84
2022/02/15 12:55:09;;;;;;;35.88;27.73;;;;;;;;;;5052568;28;20411;-82
2022/02/15 12:57:38;;;;;;;37.53;28.55;;;;;;;;;;5059870;28;20395;-83
2022/02/15 13:00:07;;;;;;;35.60;27.13;;;;;;;;;;5040860;28;20396;-83
2022/02/15 13:02:36;;;;;;;39.17;28.73;;;;;;;;;;5024138;28;20419;-82
2022/02/15 13:05:04;;;;;;;35.97;28.27;;;;;;;;;;5038833;28;20395;-83
2022/02/15 13:07:31;;;;;;;37.23;30.07;;;;;;;;;;5039469;28;20411;-84
2022/02/15 13:10:01;;;;;;;33.00;28.77;;;;;;;;;;5038752;28;20813;-83
2022/02/15 13:12:30;;;;;;;35.35;29.17;;;;;;;;;;5044676;28;20415;-84
2022/02/15 13:15:00;;;;;;;35.65;29.75;;;;;;;;;;5043960;28;20435;-85
2022/02/15 13:17:39;;;;;;;32.88;27.10;;;;;;;;;;5042306;28;20716;-83
2022/02/15 13:20:17;;;;;;;34.78;28.40;;;;;;;;;;5040747;28;20401;-85
2022/02/15 13:22:44;;;;;;;34.53;29.17;;;;;;;;;;5040927;28;20918;-83
2022/02/15 13:25:13;;;;;;;35.72;29.80;;;;;;;;;;5045309;28;21076;-84
2022/02/15 13:27:41;;;;;;;35.17;28.67;;;;;;;;;;5041426;28;20423;-84
2022/02/15 13:30:21;;;;;;;29.63;26.02;;;;;;;;;;5043091;28;20419;-82
2022/02/15 13:32:59;;;;;;;29.40;24.85;;;;;;;;;;5040152;28;20400;-84
2022/02/15 13:35:26;;;;;;;31.37;26.67;;;;;;;;;;5041216;28;20953;-83
2022/02/15 13:37:58;;;;;;;40.67;29.52;;;;;;;;;;5040205;28;20805;-83
2022/02/15 13:40:30;;;;;;;32.20;26.52;;;;;;;;;;5043108;28;21606;-84
2022/02/15 13:42:58;;;;;;;32.60;27.45;;;;;;;;;;5042910;28;21009;-85
2022/02/15 13:45:25;;;;;;;47.25;33.38;;;;;;;;;;5042772;28;20432;-82
2022/02/15 13:47:52;;;;;;;33.28;27.35;;;;;;;;;;5043554;28;20415;-82
2022/02/15 13:50:19;;;;;;;50.40;33.97;;;;;;;;;;5041844;28;20840;-82
2022/02/15 13:52:46;;;;;;;32.00;26.35;;;;;;;;;;5042176;28;20411;-84
2022/02/15 13:55:13;;;;;;;28.00;23.97;;;;;;;;;;5025742;28;20424;-82
2022/02/15 13:57:41;;;;;;;31.33;26.27;;;;;;;;;;5044886;28;20469;-83
2022/02/15 14:00:12;;;;;;;38.70;29.50;;;;;;;;;;5041291;28;20884;-86
2022/02/15 14:02:43;;;;;;;82.10;47.05;;;;;;;;;;5037332;28;20954;-83
2022/02/15 14:05:11;;;;;;;93.35;48.60;;;;;;;;;;5040068;28;20404;-84
2022/02/15 14:07:39;;;;;;;70.82;41.45;;;;;;;;;;5039181;28;20415;-82
2022/02/15 14:10:07;;;;;;;29.05;23.98;;;;;;;;;;5042862;28;20473;-84
2022/02/15 14:12:37;;;;;;;89.90;42.93;;;;;;;;;;5041545;28;20404;-84
2022/02/15 14:15:08;;;;;;;79.35;39.35;;;;;;;;;;5042320;28;20508;-82
2022/02/15 14:17:45;;;;;;;31.58;26.88;;;;;;;;;;5042593;28;20480;-83
2022/02/15 14:20:14;;;;;;;28.60;25.35;;;;;;;;;;5038895;28;20511;-84
2022/02/15 14:22:42;;;;;;;29.27;25.13;;;;;;;;;;5041007;28;20485;-83
2022/02/15 14:25:11;;;;;;;27.27;24.00;;;;;;;;;;5043344;28;20407;-83
2022/02/15 14:27:38;;;;;;;44.25;30.35;;;;;;;;;;5039915;28;20598;-83